createdAt,value
2018-05-02T00:01:55.660Z,3.10
2018-05-02T00:04:24.666Z,3.10
2018-05-02T00:06:52.889Z,3.10
2018-05-02T00:09:21.114Z,3.10
2018-05-02T00:11:49.333Z,3.10
2018-05-02T00:14:17.564Z,3.10
2018-05-02T00:16:45.783Z,3.10
2018-05-02T00:19:14.020Z,3.10
2018-05-02T00:21:42.242Z,3.00
2018-05-02T00:24:10.468Z,3.00
2018-05-02T00:26:38.683Z,3.00
2018-05-02T00:29:07.374Z,3.00
2018-05-02T00:31:35.571Z,3.00
2018-05-02T00:34:04.579Z,2.90
2018-05-02T00:36:32.814Z,2.90
2018-05-02T00:39:01.042Z,2.90
2018-05-02T00:41:29.266Z,2.90
2018-05-02T00:43:57.492Z,2.80
2018-05-02T00:46:25.731Z,2.90
2018-05-02T00:49:07.188Z,2.80
2018-05-02T00:51:35.389Z,2.80
2018-05-02T00:54:04.379Z,2.80
2018-05-02T00:56:33.373Z,2.70
2018-05-02T00:59:01.598Z,2.70
2018-05-02T01:01:29.832Z,2.70
2018-05-02T01:03:58.053Z,2.80
2018-05-02T01:06:26.290Z,2.70
2018-05-02T01:08:54.514Z,2.60
2018-05-02T01:11:22.750Z,2.60
2018-05-02T01:13:50.977Z,2.60
2018-05-02T01:16:19.240Z,2.50
2018-05-02T01:18:47.463Z,2.40
2018-05-02T01:21:15.696Z,2.30
2018-05-02T01:23:44.687Z,2.30
2018-05-02T01:26:13.687Z,2.30
2018-05-02T01:28:42.681Z,2.40
2018-05-02T01:31:11.683Z,2.30
2018-05-02T01:33:39.903Z,2.30
2018-05-02T01:36:08.142Z,2.30
2018-05-02T01:38:36.366Z,2.30
2018-05-02T01:41:04.601Z,2.30
2018-05-02T01:43:32.831Z,2.30
2018-05-02T01:46:01.847Z,2.30
2018-05-02T01:48:30.083Z,2.30
2018-05-02T01:50:58.659Z,2.30
2018-05-02T01:53:26.859Z,2.30
2018-05-02T01:55:55.856Z,2.20
2018-05-02T01:58:24.097Z,2.30
2018-05-02T02:00:52.311Z,2.30
2018-05-02T02:03:20.555Z,2.20
2018-05-02T02:05:48.774Z,2.30
2018-05-02T02:08:17.010Z,2.20
2018-05-02T02:10:45.999Z,2.20
2018-05-02T02:13:14.999Z,2.20
2018-05-02T02:15:43.986Z,2.20
2018-05-02T02:18:12.992Z,2.20
2018-05-02T02:20:41.226Z,2.20
2018-05-02T02:23:09.455Z,2.20
2018-05-02T02:25:37.681Z,2.30
2018-05-02T02:28:05.910Z,2.30
2018-05-02T02:30:34.132Z,2.20
2018-05-02T02:33:02.369Z,2.30
2018-05-02T02:35:30.591Z,2.30
2018-05-02T02:37:59.588Z,2.30
2018-05-02T02:40:28.571Z,2.30
2018-05-02T02:42:58.057Z,2.20
2018-05-02T02:45:26.254Z,2.20
2018-05-02T02:47:55.259Z,2.10
2018-05-02T02:50:23.480Z,2.00
2018-05-02T02:52:51.710Z,2.10
2018-05-02T02:55:19.954Z,2.10
2018-05-02T02:57:48.167Z,2.10
2018-05-02T03:00:16.386Z,2.00
2018-05-02T03:02:44.623Z,2.00
2018-05-02T03:05:12.842Z,1.90
2018-05-02T03:07:41.060Z,1.90
2018-05-02T03:10:09.304Z,1.90
2018-05-02T03:12:38.287Z,1.90
2018-05-02T03:15:07.296Z,1.90
2018-05-02T03:17:36.284Z,1.90
2018-05-02T03:20:05.286Z,1.90
2018-05-02T03:22:33.544Z,1.90
2018-05-02T03:25:02.555Z,1.90
2018-05-02T03:27:30.764Z,1.90
2018-05-02T03:29:58.999Z,1.90
2018-05-02T03:32:27.216Z,2.00
2018-05-02T03:34:55.461Z,2.00
2018-05-02T03:37:23.674Z,1.90
2018-05-02T03:39:51.907Z,1.90
2018-05-02T03:42:20.131Z,1.90
2018-05-02T03:44:48.372Z,1.90
2018-05-02T03:47:16.591Z,1.90
2018-05-02T03:49:45.591Z,2.00
2018-05-02T03:52:14.582Z,2.00
2018-05-02T03:54:43.591Z,2.00
2018-05-02T03:57:11.824Z,2.00
2018-05-02T03:59:51.978Z,1.90
2018-05-02T04:05:34.274Z,2.10
2018-05-02T04:08:02.499Z,2.00
2018-05-02T04:10:31.503Z,2.00
2018-05-02T04:12:59.716Z,2.00
2018-05-02T04:15:27.950Z,2.10
2018-05-02T04:17:56.266Z,2.10
2018-05-02T04:20:26.010Z,2.10
2018-05-02T04:22:55.000Z,2.10
2018-05-02T04:25:24.000Z,2.20
2018-05-02T04:27:52.993Z,2.20
2018-05-02T04:30:22.017Z,2.20
2018-05-02T04:32:50.231Z,2.30
2018-05-02T04:35:18.451Z,2.20
2018-05-02T04:37:46.695Z,2.30
2018-05-02T04:40:15.670Z,2.30
2018-05-02T04:42:43.915Z,2.30
2018-05-02T04:45:12.134Z,2.40
2018-05-02T04:47:41.141Z,2.50
2018-05-02T04:50:09.354Z,2.50
2018-05-02T04:52:37.625Z,2.50
2018-05-02T04:55:05.820Z,2.60
2018-05-02T04:57:34.064Z,2.70
2018-05-02T05:00:02.278Z,2.80
2018-05-02T05:02:30.518Z,2.90
2018-05-02T05:04:58.745Z,3.00
2018-05-02T05:07:27.003Z,3.00
2018-05-02T05:09:56.003Z,3.30
2018-05-02T05:12:25.021Z,3.40
2018-05-02T05:14:53.259Z,3.40
2018-05-02T05:17:21.503Z,3.50
2018-05-02T05:19:49.731Z,3.70
2018-05-02T05:22:18.434Z,3.70
2018-05-02T05:24:47.453Z,4.00
2018-05-02T05:27:15.702Z,4.00
2018-05-02T05:29:43.930Z,4.10
2018-05-02T05:32:12.948Z,4.30
2018-05-02T05:34:41.178Z,4.20
2018-05-02T05:37:09.423Z,4.40
2018-05-02T05:39:37.663Z,4.50
2018-05-02T05:42:05.916Z,4.70
2018-05-02T05:44:34.143Z,4.80
2018-05-02T05:47:02.381Z,4.90
2018-05-02T05:49:31.392Z,5.20
2018-05-02T05:51:59.626Z,5.20
2018-05-02T05:54:27.960Z,5.40
2018-05-02T05:56:56.103Z,5.50
2018-05-02T05:59:24.369Z,5.70
2018-05-02T06:01:53.362Z,6.00
2018-05-02T06:04:21.612Z,6.00
2018-05-02T06:06:49.903Z,6.20
2018-05-02T06:09:18.073Z,6.40
2018-05-02T06:11:47.063Z,6.80
2018-05-02T06:14:16.075Z,7.00
2018-05-02T06:16:44.309Z,6.90
2018-05-02T06:19:12.547Z,7.10
2018-05-02T06:21:40.767Z,7.30
2018-05-02T06:24:09.015Z,7.50
2018-05-02T06:26:37.239Z,7.80
2018-05-02T06:29:05.481Z,8.00
2018-05-02T06:31:33.780Z,8.30
2018-05-02T06:34:01.966Z,8.70
2018-05-02T06:36:30.939Z,9.20
2018-05-02T06:38:59.944Z,9.50
2018-05-02T06:41:28.155Z,9.50
2018-05-02T06:43:56.392Z,9.80
2018-05-02T06:46:24.616Z,10.00
2018-05-02T06:48:52.864Z,10.30
2018-05-02T06:51:21.089Z,10.50
2018-05-02T06:53:50.091Z,10.90
2018-05-02T06:56:19.087Z,11.00
2018-05-02T06:58:47.339Z,11.00
2018-05-02T07:01:15.580Z,11.10
2018-05-02T07:03:43.812Z,11.20
2018-05-02T07:06:12.054Z,11.40
2018-05-02T07:08:40.292Z,11.60
2018-05-02T07:11:08.862Z,11.70
2018-05-02T07:13:37.155Z,12.00
2018-05-02T07:16:05.331Z,12.10
2018-05-02T07:18:33.564Z,12.10
2018-05-02T07:21:01.860Z,12.20
2018-05-02T07:23:30.084Z,12.20
2018-05-02T07:25:58.319Z,12.40
2018-05-02T07:28:26.555Z,12.60
2018-05-02T07:30:54.791Z,12.60
2018-05-02T07:33:24.527Z,12.80
2018-05-02T07:35:53.532Z,12.70
2018-05-02T07:38:21.764Z,12.70
2018-05-02T07:40:49.999Z,13.00
2018-05-02T07:43:18.235Z,13.30
2018-05-02T07:45:47.247Z,13.10
2018-05-02T07:48:15.480Z,13.10
2018-05-02T07:50:43.715Z,13.10
2018-05-02T07:53:11.944Z,13.30
2018-05-02T07:55:40.956Z,13.70
2018-05-02T07:58:09.950Z,13.80
2018-05-02T08:00:38.202Z,13.80
2018-05-02T08:03:06.428Z,13.70
2018-05-02T08:05:34.659Z,14.00
2018-05-02T08:08:03.658Z,14.10
2018-05-02T08:10:31.925Z,14.10
2018-05-02T08:13:00.920Z,14.50
2018-05-02T08:15:29.916Z,14.40
2018-05-02T08:17:58.919Z,14.50
2018-05-02T08:20:27.155Z,14.50
2018-05-02T08:22:55.454Z,14.90
2018-05-02T08:25:24.450Z,14.30
2018-05-02T08:27:52.746Z,14.30
2018-05-02T08:30:20.972Z,14.80
2018-05-02T08:32:49.278Z,15.10
2018-05-02T08:35:17.444Z,15.60
2018-05-02T08:37:45.690Z,15.90
2018-05-02T08:40:13.921Z,16.00
2018-05-02T08:42:42.158Z,15.80
2018-05-02T08:45:11.155Z,15.40
2018-05-02T08:47:39.402Z,15.40
2018-05-02T08:50:07.628Z,15.10
2018-05-02T08:52:35.867Z,14.90
2018-05-02T08:55:04.861Z,14.40
2018-05-02T08:57:33.870Z,14.20
2018-05-02T09:00:02.104Z,14.20
2018-05-02T09:02:30.348Z,14.30
2018-05-02T09:04:58.571Z,14.10
2018-05-02T09:07:27.583Z,14.90
2018-05-02T09:09:55.818Z,14.90
2018-05-02T09:12:24.063Z,15.60
2018-05-02T09:14:52.288Z,15.70
2018-05-02T09:17:21.294Z,14.90
2018-05-02T09:19:49.523Z,14.90
2018-05-02T09:22:17.764Z,14.60
2018-05-02T09:24:46.003Z,14.50
2018-05-02T09:27:14.259Z,14.60
2018-05-02T09:29:43.255Z,15.30
2018-05-02T09:32:12.267Z,15.50
2018-05-02T09:34:40.488Z,15.50
2018-05-02T09:37:08.727Z,16.00
2018-05-02T09:39:36.952Z,16.00
2018-05-02T09:42:05.202Z,15.60
2018-05-02T09:44:33.436Z,15.80
2018-05-02T09:47:01.700Z,15.90
2018-05-02T09:49:29.899Z,16.20
2018-05-02T09:51:58.131Z,16.30
2018-05-02T09:54:26.371Z,16.10
2018-05-02T09:56:54.595Z,16.40
2018-05-02T09:59:22.848Z,16.50
2018-05-02T10:01:51.124Z,16.00
2018-05-02T10:04:19.346Z,16.30
2018-05-02T10:06:47.578Z,16.80
2018-05-02T10:09:16.582Z,17.00
2018-05-02T10:11:44.820Z,17.00
2018-05-02T10:14:13.062Z,17.00
2018-05-02T10:16:41.290Z,17.00
2018-05-02T10:19:10.295Z,17.60
2018-05-02T10:21:38.551Z,17.60
2018-05-02T10:24:07.633Z,17.40
2018-05-02T10:26:35.839Z,17.30
2018-05-02T10:29:04.082Z,16.60
2018-05-02T10:31:32.306Z,16.30
2018-05-02T10:34:00.551Z,16.70
2018-05-02T10:36:29.546Z,16.00
2018-05-02T10:38:57.795Z,16.00
2018-05-02T10:41:26.020Z,16.30
2018-05-02T10:43:54.267Z,16.70
2018-05-02T10:46:23.263Z,16.20
2018-05-02T10:48:52.268Z,16.50
2018-05-02T10:51:20.499Z,16.50
2018-05-02T10:53:48.743Z,16.60
2018-05-02T10:56:17.259Z,16.40
2018-05-02T10:58:45.501Z,16.80
2018-05-02T11:01:13.727Z,17.00
2018-05-02T11:03:41.982Z,16.60
2018-05-02T11:06:10.203Z,16.20
2018-05-02T11:08:38.449Z,16.10
2018-05-02T11:11:06.677Z,16.30
2018-05-02T11:13:34.918Z,16.50
2018-05-02T11:16:03.148Z,16.20
2018-05-02T11:18:31.418Z,16.10
2018-05-02T11:20:59.649Z,16.20
2018-05-02T11:23:27.891Z,16.30
2018-05-02T11:25:56.119Z,16.50
2018-05-02T11:28:24.370Z,16.40
2018-05-02T11:30:52.646Z,16.40
2018-05-02T11:33:22.275Z,16.40
2018-05-02T11:35:50.520Z,16.40
2018-05-02T11:38:18.755Z,16.40
2018-05-02T11:40:47.764Z,16.70
2018-05-02T11:43:16.001Z,16.70
2018-05-02T11:45:44.238Z,16.70
2018-05-02T11:48:12.478Z,16.80
2018-05-02T11:50:41.485Z,17.00
2018-05-02T11:53:09.715Z,16.90
2018-05-02T11:55:37.955Z,17.20
2018-05-02T11:58:06.180Z,17.00
2018-05-02T12:00:35.182Z,16.70
2018-05-02T12:03:03.410Z,16.70
2018-05-02T12:05:31.655Z,17.00
2018-05-02T12:07:59.883Z,17.10
2018-05-02T12:10:28.137Z,17.40
2018-05-02T12:12:56.358Z,17.70
2018-05-02T12:15:24.608Z,17.50
2018-05-02T12:17:53.603Z,17.50
2018-05-02T12:20:22.624Z,17.60
2018-05-02T12:22:50.859Z,17.60
2018-05-02T12:25:19.102Z,17.70
2018-05-02T12:27:47.380Z,18.00
2018-05-02T12:30:15.575Z,17.80
2018-05-02T12:32:43.812Z,18.00
2018-05-02T12:35:12.062Z,17.90
2018-05-02T12:37:40.291Z,17.90
2018-05-02T12:40:08.532Z,17.80
2018-05-02T12:42:37.154Z,17.40
2018-05-02T12:45:05.375Z,17.50
2018-05-02T12:47:33.604Z,17.40
2018-05-02T12:50:01.852Z,17.40
2018-05-02T12:52:30.077Z,17.70
2018-05-02T12:54:58.356Z,17.50
2018-05-02T12:57:26.902Z,17.30
2018-05-02T12:59:55.115Z,17.00
2018-05-02T13:02:23.346Z,17.10
2018-05-02T13:04:51.579Z,17.40
2018-05-02T13:07:19.806Z,17.70
2018-05-02T13:09:48.812Z,17.60
2018-05-02T13:12:17.807Z,17.50
2018-05-02T13:14:46.062Z,17.40
2018-05-02T13:17:15.059Z,17.30
2018-05-02T13:19:44.079Z,17.00
2018-05-02T13:22:12.310Z,17.00
2018-05-02T13:24:40.540Z,16.90
2018-05-02T13:27:08.787Z,17.10
2018-05-02T13:29:37.016Z,16.90
2018-05-02T13:32:05.254Z,16.80
2018-05-02T13:34:33.492Z,16.80
2018-05-02T13:37:02.502Z,17.10
2018-05-02T13:39:30.739Z,17.10
2018-05-02T13:41:58.974Z,16.90
2018-05-02T13:44:27.195Z,16.90
2018-05-02T13:46:55.430Z,17.10
2018-05-02T13:49:23.654Z,16.80
2018-05-02T13:51:52.667Z,17.10
2018-05-02T13:54:20.899Z,17.10
2018-05-02T13:56:49.130Z,17.00
2018-05-02T13:59:17.354Z,16.90
2018-05-02T14:01:46.367Z,16.60
2018-05-02T14:04:15.355Z,16.50
2018-05-02T14:06:44.366Z,16.40
2018-05-02T14:09:12.595Z,16.40
2018-05-02T14:11:40.835Z,16.30
2018-05-02T14:14:09.060Z,16.40
2018-05-02T14:16:38.066Z,16.50
2018-05-02T14:19:06.294Z,16.50
2018-05-02T14:21:34.535Z,16.60
2018-05-02T14:24:02.770Z,16.70
2018-05-02T14:26:31.774Z,16.90
2018-05-02T14:29:00.017Z,16.90
2018-05-02T14:31:28.259Z,16.90
2018-05-02T14:33:56.487Z,16.90
2018-05-02T14:36:25.495Z,17.10
2018-05-02T14:38:53.715Z,17.10
2018-05-02T14:41:21.961Z,17.10
2018-05-02T14:43:50.189Z,16.80
2018-05-02T14:46:18.422Z,16.90
2018-05-02T14:48:46.655Z,16.90
2018-05-02T14:51:15.659Z,17.10
2018-05-02T14:53:43.887Z,17.10
2018-05-02T14:56:12.115Z,17.00
2018-05-02T14:58:40.358Z,16.80
2018-05-02T15:01:09.351Z,16.90
2018-05-02T15:03:38.363Z,16.70
2018-05-02T15:06:06.595Z,16.70
2018-05-02T15:08:34.839Z,16.40
2018-05-02T15:11:03.833Z,16.40
2018-05-02T15:13:32.114Z,16.40
2018-05-02T15:16:00.303Z,16.60
2018-05-02T15:18:28.546Z,16.60
2018-05-02T15:20:56.771Z,16.60
2018-05-02T15:23:25.779Z,16.60
2018-05-02T15:25:54.038Z,16.60
2018-05-02T15:28:22.247Z,16.40
2018-05-02T15:30:50.471Z,16.20
2018-05-02T15:33:18.741Z,16.40
2018-05-02T15:35:46.967Z,16.30
2018-05-02T15:38:15.195Z,16.30
2018-05-02T15:40:43.427Z,16.20
2018-05-02T15:43:11.659Z,16.20
2018-05-02T15:45:40.671Z,16.30
2018-05-02T15:48:08.900Z,16.30
2018-05-02T15:50:37.134Z,16.40
2018-05-02T15:53:05.366Z,16.30
2018-05-02T15:55:34.370Z,16.40
2018-05-02T15:58:02.635Z,16.40
2018-05-02T16:00:30.839Z,16.50
2018-05-02T16:02:59.067Z,16.50
2018-05-02T16:05:27.306Z,16.30
2018-05-02T16:07:56.121Z,16.40
2018-05-02T16:10:24.683Z,16.40
2018-05-02T16:12:52.953Z,16.30
2018-05-02T16:17:56.340Z,16.10
2018-05-02T16:20:25.446Z,16.00
2018-05-02T16:22:55.251Z,16.00
2018-05-02T16:25:23.608Z,16.00
2018-05-02T16:27:51.907Z,16.00
2018-05-02T16:30:20.176Z,16.00
2018-05-02T16:32:48.582Z,16.10
2018-05-02T16:35:17.189Z,16.10
2018-05-02T16:37:45.656Z,16.10
2018-05-02T16:40:13.942Z,16.00
2018-05-02T16:42:43.049Z,16.00
2018-05-02T16:45:11.433Z,15.90
2018-05-02T16:47:40.017Z,16.00
2018-05-02T16:50:08.456Z,15.90
2018-05-02T16:52:37.500Z,15.90
2018-05-02T16:55:06.001Z,15.90
2018-05-02T16:57:34.628Z,15.80
2018-05-02T17:00:03.002Z,15.80
2018-05-02T17:02:31.257Z,15.70
2018-05-02T17:04:59.580Z,15.70
2018-05-02T17:07:28.709Z,15.50
2018-05-02T17:09:57.321Z,15.50
2018-05-02T17:12:26.345Z,15.40
2018-05-02T17:14:54.571Z,15.40
2018-05-02T17:17:22.815Z,15.40
2018-05-02T17:19:51.060Z,15.40
2018-05-02T17:22:20.089Z,15.30
2018-05-02T17:24:48.364Z,15.30
2018-05-02T17:27:17.455Z,15.40
2018-05-02T17:29:45.697Z,15.40
2018-05-02T17:32:14.711Z,15.20
2018-05-02T17:34:42.942Z,15.20
2018-05-02T17:37:13.597Z,15.10
2018-05-02T17:39:45.290Z,15.10
2018-05-02T17:42:14.670Z,15.00
2018-05-02T17:44:44.306Z,14.90
2018-05-02T17:47:13.941Z,14.80
2018-05-02T17:49:42.810Z,14.70
2018-05-02T17:52:14.861Z,14.70
2018-05-02T17:54:44.864Z,14.50
2018-05-02T17:57:13.777Z,14.50
2018-05-02T17:59:42.640Z,14.50
2018-05-02T18:02:12.215Z,14.40
2018-05-02T18:04:41.081Z,14.40
2018-05-02T18:07:09.872Z,14.20
2018-05-02T18:09:38.809Z,14.20
2018-05-02T18:12:07.627Z,14.20
2018-05-02T18:14:37.653Z,14.00
2018-05-02T18:17:07.285Z,13.80
2018-05-02T18:19:35.937Z,13.80
2018-05-02T18:22:04.232Z,13.80
2018-05-02T18:24:33.238Z,13.60
2018-05-02T18:27:01.462Z,13.60
2018-05-02T18:29:30.063Z,13.60
2018-05-02T18:31:58.276Z,13.60
2018-05-02T18:34:26.514Z,13.40
2018-05-02T18:36:55.510Z,13.10
2018-05-02T18:39:24.521Z,13.10
2018-05-02T18:41:52.824Z,13.10
2018-05-02T18:44:20.992Z,13.00
2018-05-02T18:46:49.215Z,13.00
2018-05-02T18:49:17.459Z,12.90
2018-05-02T18:51:45.934Z,12.90
2018-05-02T18:54:14.294Z,12.80
2018-05-02T18:56:43.642Z,12.70
2018-05-02T18:59:12.758Z,12.60
2018-05-02T19:01:41.767Z,12.50
2018-05-02T19:04:10.380Z,12.90
2018-05-02T19:06:38.639Z,12.50
2018-05-02T19:09:06.979Z,12.50
2018-05-02T19:11:36.106Z,12.30
2018-05-02T19:14:04.588Z,12.30
2018-05-02T19:16:33.202Z,12.30
2018-05-02T19:19:07.530Z,12.30
2018-05-02T19:21:35.846Z,12.30
2018-05-02T19:24:04.091Z,12.20
2018-05-02T19:26:37.093Z,12.10
2018-05-02T19:29:06.382Z,12.10
2018-05-02T19:31:41.329Z,12.00
2018-05-02T19:34:09.901Z,12.00
2018-05-02T19:36:39.712Z,11.90
2018-05-02T19:39:08.691Z,11.90
2018-05-02T19:41:43.427Z,11.70
2018-05-02T19:44:11.656Z,11.80
2018-05-02T19:46:39.900Z,11.60
2018-05-02T19:49:08.129Z,11.60
2018-05-02T19:51:42.011Z,11.50
2018-05-02T19:54:10.239Z,11.40
2018-05-02T19:56:38.488Z,11.30
2018-05-02T19:59:06.708Z,11.20
2018-05-02T20:01:40.707Z,11.10
2018-05-02T20:04:08.949Z,11.00
2018-05-02T20:06:38.000Z,10.90
2018-05-02T20:09:11.911Z,10.90
2018-05-02T20:11:45.967Z,10.90
2018-05-02T20:14:14.958Z,10.70
2018-05-02T20:16:43.974Z,10.70
2018-05-02T20:19:12.268Z,10.60
2018-05-02T20:21:40.599Z,10.60
2018-05-02T20:24:09.647Z,10.50
2018-05-02T20:26:38.715Z,10.40
2018-05-02T20:29:07.022Z,10.30
2018-05-02T20:31:35.244Z,10.30
2018-05-02T20:34:03.466Z,10.30
2018-05-02T20:36:31.843Z,10.20
2018-05-02T20:39:00.195Z,10.20
2018-05-02T20:41:28.418Z,10.20
2018-05-02T20:43:56.666Z,10.20
2018-05-02T20:46:25.321Z,10.20
2018-05-02T20:48:54.286Z,10.10
2018-05-02T20:51:23.295Z,10.00
2018-05-02T20:53:51.523Z,10.00
2018-05-02T20:56:20.109Z,10.00
2018-05-02T20:58:48.302Z,10.10
2018-05-02T21:01:17.323Z,10.10
2018-05-02T21:03:46.560Z,10.00
2018-05-02T21:06:14.795Z,10.10
2018-05-02T21:08:43.024Z,10.00
2018-05-02T21:11:11.285Z,10.00
2018-05-02T21:13:39.520Z,10.00
2018-05-02T21:16:07.752Z,9.90
2018-05-02T21:18:35.993Z,9.90
2018-05-02T21:21:04.208Z,9.90
2018-05-02T21:23:33.206Z,9.80
2018-05-02T21:26:01.431Z,9.80
2018-05-02T21:28:29.663Z,9.70
2018-05-02T21:30:57.914Z,9.60
2018-05-02T21:33:26.135Z,9.60
2018-05-02T21:35:54.359Z,9.60
2018-05-02T21:38:23.369Z,9.30
2018-05-02T21:40:52.357Z,9.30
2018-05-02T21:43:21.447Z,9.30
2018-05-02T21:45:49.574Z,9.30
2018-05-02T21:48:17.814Z,9.30
2018-05-02T21:50:46.043Z,9.30
2018-05-02T21:53:14.279Z,9.20
2018-05-02T21:55:42.499Z,9.30
2018-05-02T21:58:11.504Z,9.20
2018-05-02T22:00:40.484Z,9.20
2018-05-02T22:03:09.499Z,9.20
2018-05-02T22:05:37.723Z,9.20
2018-05-02T22:08:05.947Z,9.20
2018-05-02T22:10:34.182Z,9.10
2018-05-02T22:13:02.402Z,9.00
2018-05-02T22:15:30.640Z,8.80
2018-05-02T22:17:58.859Z,8.80
2018-05-02T22:20:27.100Z,8.80
2018-05-02T22:22:56.082Z,8.80
2018-05-02T22:25:25.079Z,8.80
2018-05-02T22:27:54.080Z,8.80
2018-05-02T22:30:23.068Z,8.70
2018-05-02T22:32:52.054Z,8.80
2018-05-02T22:35:21.046Z,8.80
2018-05-02T22:37:50.044Z,8.80
2018-05-02T22:40:19.044Z,8.90
2018-05-02T22:42:47.275Z,8.80
2018-05-02T22:45:15.511Z,9.00
2018-05-02T22:47:43.732Z,9.00
2018-05-02T22:50:11.963Z,9.10
2018-05-02T22:52:40.186Z,9.10
2018-05-02T22:55:09.196Z,9.20
2018-05-02T22:57:37.415Z,9.20
2018-05-02T23:00:05.650Z,9.20
2018-05-02T23:02:34.737Z,9.20
2018-05-02T23:05:02.866Z,9.10
2018-05-02T23:07:31.108Z,9.10
2018-05-02T23:09:59.331Z,9.00
2018-05-02T23:12:27.563Z,9.00
2018-05-02T23:14:55.779Z,9.10
2018-05-02T23:17:24.785Z,9.10
2018-05-02T23:19:53.766Z,9.10
2018-05-02T23:22:22.770Z,9.20
2018-05-02T23:24:51.853Z,9.10
2018-05-02T23:27:21.342Z,9.20
2018-05-02T23:29:49.544Z,9.10
2018-05-02T23:32:18.535Z,9.10
2018-05-02T23:34:47.522Z,9.10
2018-05-02T23:37:16.537Z,9.20
2018-05-02T23:39:44.752Z,9.20
2018-05-02T23:42:12.992Z,9.10
2018-05-02T23:44:41.213Z,8.90
2018-05-02T23:47:09.452Z,8.60
2018-05-02T23:49:37.745Z,8.40
2018-05-02T23:52:06.237Z,8.40
2018-05-02T23:54:34.426Z,8.30
2018-05-02T23:57:03.814Z,8.30
2018-05-02T23:59:32.007Z,8.30
